sensor_id;sensor_type;location;lat;lon;timestamp;P1;durP1;ratioP1;P2;durP2;ratioP2
10661;SDS011;5379;51.034;7.006;2023-03-01T00:01:07;5.07;;;4.60;;
10661;SDS011;5379;51.034;7.006;2023-03-01T00:03:36;12.47;;;4.70;;
10661;SDS011;5379;51.034;7.006;2023-03-01T00:06:04;5.10;;;4.60;;
10661;SDS011;5379;51.034;7.006;2023-03-01T00:08:31;4.57;;;4.17;;
10661;SDS011;5379;51.034;7.006;2023-03-01T00:11:02;5.10;;;4.60;;
10661;SDS011;5379;51.034;7.006;2023-03-01T00:13:31;5.17;;;4.63;;
10661;SDS011;5379;51.034;7.006;2023-03-01T00:15:58;4.93;;;4.53;;
10661;SDS011;5379;51.034;7.006;2023-03-01T00:18:28;5.53;;;4.47;;
10661;SDS011;5379;51.034;7.006;2023-03-01T00:20:56;5.33;;;4.83;;
10661;SDS011;5379;51.034;7.006;2023-03-01T00:23:24;8.20;;;5.03;;
10661;SDS011;5379;51.034;7.006;2023-03-01T00:25:51;4.80;;;4.40;;
10661;SDS011;5379;51.034;7.006;2023-03-01T00:28:19;8.47;;;5.27;;
10661;SDS011;5379;51.034;7.006;2023-03-01T00:30:46;5.23;;;4.67;;
10661;SDS011;5379;51.034;7.006;2023-03-01T00:33:13;4.33;;;4.03;;
10661;SDS011;5379;51.034;7.006;2023-03-01T00:35:40;4.57;;;4.17;;
10661;SDS011;5379;51.034;7.006;2023-03-01T00:38:09;4.97;;;4.47;;
10661;SDS011;5379;51.034;7.006;2023-03-01T00:40:36;4.43;;;4.00;;
10661;SDS011;5379;51.034;7.006;2023-03-01T00:43:03;6.03;;;4.83;;
10661;SDS011;5379;51.034;7.006;2023-03-01T00:45:32;7.17;;;4.40;;
10661;SDS011;5379;51.034;7.006;2023-03-01T00:47:59;4.90;;;3.77;;
10661;SDS011;5379;51.034;7.006;2023-03-01T00:50:26;4.60;;;4.20;;
10661;SDS011;5379;51.034;7.006;2023-03-01T00:52:53;5.93;;;4.60;;
10661;SDS011;5379;51.034;7.006;2023-03-01T00:55:22;4.47;;;4.03;;
10661;SDS011;5379;51.034;7.006;2023-03-01T00:57:50;5.50;;;4.33;;
10661;SDS011;5379;51.034;7.006;2023-03-01T05:31:59;7.70;;;6.60;;
10661;SDS011;5379;51.034;7.006;2023-03-01T05:34:28;6.83;;;5.83;;
10661;SDS011;5379;51.034;7.006;2023-03-01T05:36:57;9.50;;;6.57;;
10661;SDS011;5379;51.034;7.006;2023-03-01T05:39:24;8.37;;;6.30;;
10661;SDS011;5379;51.034;7.006;2023-03-01T05:41:53;6.90;;;6.20;;
10661;SDS011;5379;51.034;7.006;2023-03-01T05:44:21;7.43;;;6.07;;
10661;SDS011;5379;51.034;7.006;2023-03-01T05:46:48;7.53;;;6.37;;
10661;SDS011;5379;51.034;7.006;2023-03-01T05:49:16;6.87;;;6.27;;
10661;SDS011;5379;51.034;7.006;2023-03-01T05:51:48;6.37;;;5.77;;
10661;SDS011;5379;51.034;7.006;2023-03-01T05:54:15;8.70;;;6.37;;
10661;SDS011;5379;51.034;7.006;2023-03-01T05:56:42;8.90;;;6.60;;
10661;SDS011;5379;51.034;7.006;2023-03-01T05:59:10;10.00;;;6.70;;
10661;SDS011;5379;51.034;7.006;2023-03-01T06:01:38;9.17;;;5.87;;
10661;SDS011;5379;51.034;7.006;2023-03-01T06:04:06;7.43;;;5.97;;
10661;SDS011;5379;51.034;7.006;2023-03-01T06:06:34;6.07;;;5.50;;
10661;SDS011;5379;51.034;7.006;2023-03-01T06:09:03;8.20;;;6.57;;
10661;SDS011;5379;51.034;7.006;2023-03-01T06:11:33;6.50;;;5.90;;
10661;SDS011;5379;51.034;7.006;2023-03-01T06:14:00;10.57;;;6.87;;
10661;SDS011;5379;51.034;7.006;2023-03-01T06:16:27;10.17;;;6.60;;
10661;SDS011;5379;51.034;7.006;2023-03-01T06:18:54;6.93;;;6.20;;
10661;SDS011;5379;51.034;7.006;2023-03-01T06:21:21;10.70;;;7.03;;
10661;SDS011;5379;51.034;7.006;2023-03-01T06:23:49;10.63;;;6.73;;
10661;SDS011;5379;51.034;7.006;2023-03-01T06:26:16;11.10;;;7.40;;
10661;SDS011;5379;51.034;7.006;2023-03-01T06:28:43;7.40;;;6.70;;
10661;SDS011;5379;51.034;7.006;2023-03-01T06:31:11;11.47;;;7.37;;
10661;SDS011;5379;51.034;7.006;2023-03-01T06:33:38;9.63;;;6.93;;
10661;SDS011;5379;51.034;7.006;2023-03-01T06:36:06;7.70;;;6.87;;
10661;SDS011;5379;51.034;7.006;2023-03-01T06:38:34;8.23;;;7.00;;
10661;SDS011;5379;51.034;7.006;2023-03-01T06:41:02;11.97;;;7.30;;
10661;SDS011;5379;51.034;7.006;2023-03-01T06:43:30;9.13;;;6.77;;
10661;SDS011;5379;51.034;7.006;2023-03-01T06:45:57;6.97;;;6.27;;
10661;SDS011;5379;51.034;7.006;2023-03-01T06:48:24;7.97;;;7.17;;
10661;SDS011;5379;51.034;7.006;2023-03-01T06:50:51;7.63;;;6.93;;
10661;SDS011;5379;51.034;7.006;2023-03-01T06:53:18;9.50;;;7.67;;
10661;SDS011;5379;51.034;7.006;2023-03-01T06:55:45;13.40;;;7.30;;
10661;SDS011;5379;51.034;7.006;2023-03-01T06:58:13;13.27;;;8.17;;
10661;SDS011;5379;51.034;7.006;2023-03-01T07:00:40;8.27;;;7.37;;
10661;SDS011;5379;51.034;7.006;2023-03-01T07:03:08;19.83;;;9.37;;
10661;SDS011;5379;51.034;7.006;2023-03-01T07:05:35;24.30;;;9.90;;
10661;SDS011;5379;51.034;7.006;2023-03-01T07:08:02;30.73;;;10.40;;
10661;SDS011;5379;51.034;7.006;2023-03-01T07:10:29;18.10;;;7.47;;
10661;SDS011;5379;51.034;7.006;2023-03-01T07:12:56;14.83;;;8.20;;
10661;SDS011;5379;51.034;7.006;2023-03-01T07:15:25;24.97;;;9.03;;
10661;SDS011;5379;51.034;7.006;2023-03-01T07:17:53;11.67;;;8.57;;
10661;SDS011;5379;51.034;7.006;2023-03-01T07:20:20;21.50;;;8.33;;
10661;SDS011;5379;51.034;7.006;2023-03-01T07:22:49;25.20;;;10.50;;
10661;SDS011;5379;51.034;7.006;2023-03-01T07:25:16;19.47;;;9.00;;
10661;SDS011;5379;51.034;7.006;2023-03-01T07:27:43;11.00;;;8.40;;
10661;SDS011;5379;51.034;7.006;2023-03-01T07:30:14;16.23;;;8.10;;
10661;SDS011;5379;51.034;7.006;2023-03-01T07:32:43;14.03;;;8.80;;
10661;SDS011;5379;51.034;7.006;2023-03-01T07:35:10;13.97;;;8.43;;
10661;SDS011;5379;51.034;7.006;2023-03-01T07:37:37;27.53;;;8.23;;
10661;SDS011;5379;51.034;7.006;2023-03-01T07:40:05;13.50;;;8.60;;
10661;SDS011;5379;51.034;7.006;2023-03-01T07:42:33;17.07;;;7.33;;
10661;SDS011;5379;51.034;7.006;2023-03-01T07:45:00;12.53;;;7.40;;
10661;SDS011;5379;51.034;7.006;2023-03-01T07:47:26;10.93;;;8.07;;
10661;SDS011;5379;51.034;7.006;2023-03-01T07:49:55;13.10;;;8.37;;
10661;SDS011;5379;51.034;7.006;2023-03-01T07:52:22;9.77;;;7.87;;
10661;SDS011;5379;51.034;7.006;2023-03-01T07:54:49;13.83;;;7.90;;
10661;SDS011;5379;51.034;7.006;2023-03-01T07:57:16;8.87;;;6.50;;
10661;SDS011;5379;51.034;7.006;2023-03-01T07:59:43;9.13;;;6.93;;
10661;SDS011;5379;51.034;7.006;2023-03-01T08:02:10;9.40;;;5.67;;
10661;SDS011;5379;51.034;7.006;2023-03-01T08:04:37;8.90;;;6.73;;
10661;SDS011;5379;51.034;7.006;2023-03-01T08:07:05;11.10;;;5.87;;
10661;SDS011;5379;51.034;7.006;2023-03-01T08:09:34;14.40;;;6.50;;
10661;SDS011;5379;51.034;7.006;2023-03-01T08:12:01;7.07;;;6.40;;
10661;SDS011;5379;51.034;7.006;2023-03-01T08:14:29;8.27;;;6.83;;
10661;SDS011;5379;51.034;7.006;2023-03-01T08:16:56;9.97;;;6.50;;
10661;SDS011;5379;51.034;7.006;2023-03-01T08:19:23;12.10;;;6.97;;
10661;SDS011;5379;51.034;7.006;2023-03-01T08:21:50;13.97;;;7.80;;
10661;SDS011;5379;51.034;7.006;2023-03-01T08:24:18;11.27;;;7.23;;
10661;SDS011;5379;51.034;7.006;2023-03-01T08:26:45;10.57;;;8.33;;
10661;SDS011;5379;51.034;7.006;2023-03-01T08:29:12;8.83;;;6.90;;
10661;SDS011;5379;51.034;7.006;2023-03-01T08:31:39;6.93;;;5.23;;
10661;SDS011;5379;51.034;7.006;2023-03-01T08:34:07;4.83;;;4.43;;
10661;SDS011;5379;51.034;7.006;2023-03-01T08:36:36;10.53;;;5.73;;
10661;SDS011;5379;51.034;7.006;2023-03-01T08:39:05;11.50;;;6.50;;
10661;SDS011;5379;51.034;7.006;2023-03-01T08:41:34;8.53;;;6.27;;
10661;SDS011;5379;51.034;7.006;2023-03-01T08:44:01;7.10;;;6.10;;
10661;SDS011;5379;51.034;7.006;2023-03-01T08:46:30;9.03;;;6.43;;
10661;SDS011;5379;51.034;7.006;2023-03-01T08:48:58;7.67;;;5.90;;
10661;SDS011;5379;51.034;7.006;2023-03-01T08:51:25;8.20;;;6.07;;
10661;SDS011;5379;51.034;7.006;2023-03-01T08:53:54;6.90;;;6.20;;
10661;SDS011;5379;51.034;7.006;2023-03-01T08:56:21;7.77;;;5.87;;
10661;SDS011;5379;51.034;7.006;2023-03-01T08:58:49;6.97;;;5.90;;
10661;SDS011;5379;51.034;7.006;2023-03-01T09:01:16;6.97;;;6.27;;
10661;SDS011;5379;51.034;7.006;2023-03-01T09:03:45;5.13;;;4.70;;
10661;SDS011;5379;51.034;7.006;2023-03-01T09:06:13;11.00;;;5.23;;
10661;SDS011;5379;51.034;7.006;2023-03-01T09:08:41;5.20;;;4.50;;
10661;SDS011;5379;51.034;7.006;2023-03-01T09:11:10;10.77;;;6.33;;
10661;SDS011;5379;51.034;7.006;2023-03-01T09:13:40;6.37;;;5.57;;
10661;SDS011;5379;51.034;7.006;2023-03-01T09:16:08;7.43;;;5.23;;
10661;SDS011;5379;51.034;7.006;2023-03-01T09:18:37;5.17;;;4.73;;
10661;SDS011;5379;51.034;7.006;2023-03-01T09:21:05;6.57;;;5.70;;
10661;SDS011;5379;51.034;7.006;2023-03-01T09:23:33;4.67;;;4.20;;
10661;SDS011;5379;51.034;7.006;2023-03-01T09:26:01;7.07;;;5.37;;
10661;SDS011;5379;51.034;7.006;2023-03-01T09:28:28;6.87;;;4.83;;
10661;SDS011;5379;51.034;7.006;2023-03-01T09:30:57;7.33;;;5.03;;
10661;SDS011;5379;51.034;7.006;2023-03-01T09:33:27;7.80;;;5.70;;
10661;SDS011;5379;51.034;7.006;2023-03-01T09:35:57;8.53;;;5.57;;
10661;SDS011;5379;51.034;7.006;2023-03-01T09:38:25;10.03;;;5.87;;
10661;SDS011;5379;51.034;7.006;2023-03-01T09:40:53;5.40;;;4.83;;
10661;SDS011;5379;51.034;7.006;2023-03-01T09:43:21;6.03;;;5.20;;
10661;SDS011;5379;51.034;7.006;2023-03-01T09:45:55;4.97;;;4.47;;
10661;SDS011;5379;51.034;7.006;2023-03-01T09:48:33;6.03;;;4.90;;
10661;SDS011;5379;51.034;7.006;2023-03-01T09:51:08;5.17;;;4.40;;
10661;SDS011;5379;51.034;7.006;2023-03-01T09:53:41;6.17;;;5.57;;
10661;SDS011;5379;51.034;7.006;2023-03-01T09:56:11;7.73;;;5.40;;
10661;SDS011;5379;51.034;7.006;2023-03-01T09:58:47;5.83;;;5.23;;
10661;SDS011;5379;51.034;7.006;2023-03-01T10:01:24;12.80;;;3.97;;
10661;SDS011;5379;51.034;7.006;2023-03-01T10:04:13;8.63;;;6.00;;
10661;SDS011;5379;51.034;7.006;2023-03-01T10:06:56;9.00;;;5.77;;
10661;SDS011;5379;51.034;7.006;2023-03-01T10:09:33;5.57;;;5.07;;
10661;SDS011;5379;51.034;7.006;2023-03-01T10:12:02;5.10;;;4.60;;
10661;SDS011;5379;51.034;7.006;2023-03-01T10:14:35;6.87;;;4.90;;
10661;SDS011;5379;51.034;7.006;2023-03-01T10:17:08;8.17;;;5.10;;
10661;SDS011;5379;51.034;7.006;2023-03-01T10:19:41;5.07;;;4.67;;
10661;SDS011;5379;51.034;7.006;2023-03-01T10:22:11;7.80;;;5.70;;
10661;SDS011;5379;51.034;7.006;2023-03-01T10:24:41;5.67;;;5.10;;
10661;SDS011;5379;51.034;7.006;2023-03-01T10:27:11;6.00;;;5.50;;
10661;SDS011;5379;51.034;7.006;2023-03-01T10:29:45;4.90;;;4.50;;
10661;SDS011;5379;51.034;7.006;2023-03-01T10:32:15;6.90;;;5.70;;
10661;SDS011;5379;51.034;7.006;2023-03-01T10:34:45;7.97;;;5.63;;
10661;SDS011;5379;51.034;7.006;2023-03-01T10:37:13;7.60;;;6.37;;
10661;SDS011;5379;51.034;7.006;2023-03-01T10:39:58;9.00;;;6.10;;
10661;SDS011;5379;51.034;7.006;2023-03-01T10:42:33;6.17;;;5.57;;
10661;SDS011;5379;51.034;7.006;2023-03-01T10:45:16;6.17;;;5.47;;
10661;SDS011;5379;51.034;7.006;2023-03-01T10:47:57;7.63;;;5.40;;
10661;SDS011;5379;51.034;7.006;2023-03-01T10:50:31;8.13;;;5.70;;
10661;SDS011;5379;51.034;7.006;2023-03-01T10:52:59;7.70;;;6.13;;
10661;SDS011;5379;51.034;7.006;2023-03-01T10:55:30;7.10;;;5.63;;
10661;SDS011;5379;51.034;7.006;2023-03-01T10:58:07;5.47;;;4.77;;
10661;SDS011;5379;51.034;7.006;2023-03-01T11:00:47;5.83;;;5.23;;
10661;SDS011;5379;51.034;7.006;2023-03-01T11:03:17;6.53;;;5.90;;
10661;SDS011;5379;51.034;7.006;2023-03-01T11:06:01;7.13;;;5.73;;
10661;SDS011;5379;51.034;7.006;2023-03-01T11:08:35;6.40;;;5.47;;
10661;SDS011;5379;51.034;7.006;2023-03-01T11:11:04;6.17;;;4.93;;
10661;SDS011;5379;51.034;7.006;2023-03-01T11:13:47;7.57;;;5.77;;
10661;SDS011;5379;51.034;7.006;2023-03-01T11:16:22;6.03;;;5.43;;
10661;SDS011;5379;51.034;7.006;2023-03-01T11:18:58;5.60;;;4.83;;
10661;SDS011;5379;51.034;7.006;2023-03-01T11:21:32;8.73;;;5.37;;
10661;SDS011;5379;51.034;7.006;2023-03-01T11:24:01;5.53;;;5.03;;
10661;SDS011;5379;51.034;7.006;2023-03-01T11:26:31;8.13;;;4.97;;
10661;SDS011;5379;51.034;7.006;2023-03-01T11:29:05;6.60;;;5.47;;
10661;SDS011;5379;51.034;7.006;2023-03-01T11:31:43;6.67;;;5.50;;
10661;SDS011;5379;51.034;7.006;2023-03-01T11:34:12;5.97;;;4.37;;
10661;SDS011;5379;51.034;7.006;2023-03-01T11:36:46;5.20;;;4.70;;
10661;SDS011;5379;51.034;7.006;2023-03-01T11:39:20;7.80;;;5.30;;
10661;SDS011;5379;51.034;7.006;2023-03-01T11:41:58;5.10;;;4.70;;
10661;SDS011;5379;51.034;7.006;2023-03-01T11:44:32;6.77;;;6.07;;
10661;SDS011;5379;51.034;7.006;2023-03-01T11:47:11;7.23;;;5.20;;
10661;SDS011;5379;51.034;7.006;2023-03-01T11:49:53;5.77;;;5.10;;
10661;SDS011;5379;51.034;7.006;2023-03-01T11:52:37;5.63;;;5.03;;
10661;SDS011;5379;51.034;7.006;2023-03-01T11:55:19;6.80;;;5.20;;
10661;SDS011;5379;51.034;7.006;2023-03-01T11:58:05;7.83;;;5.20;;
10661;SDS011;5379;51.034;7.006;2023-03-01T12:01:17;5.43;;;4.93;;
10661;SDS011;5379;51.034;7.006;2023-03-01T12:06:59;5.13;;;4.43;;
10661;SDS011;5379;51.034;7.006;2023-03-01T12:09:33;6.53;;;5.10;;
10661;SDS011;5379;51.034;7.006;2023-03-01T12:15:07;5.17;;;4.40;;
10661;SDS011;5379;51.034;7.006;2023-03-01T12:17:47;5.03;;;4.63;;
10661;SDS011;5379;51.034;7.006;2023-03-01T12:20:36;7.43;;;5.70;;
10661;SDS011;5379;51.034;7.006;2023-03-01T12:26:08;5.47;;;4.97;;
10661;SDS011;5379;51.034;7.006;2023-03-01T12:28:47;8.40;;;5.30;;
10661;SDS011;5379;51.034;7.006;2023-03-01T12:31:30;5.73;;;4.93;;
10661;SDS011;5379;51.034;7.006;2023-03-01T12:34:14;5.00;;;4.57;;
10661;SDS011;5379;51.034;7.006;2023-03-01T12:36:57;9.57;;;4.87;;
10661;SDS011;5379;51.034;7.006;2023-03-01T12:39:44;6.63;;;5.30;;
10661;SDS011;5379;51.034;7.006;2023-03-01T12:42:24;6.10;;;4.97;;
10661;SDS011;5379;51.034;7.006;2023-03-01T12:45:02;5.83;;;5.20;;
10661;SDS011;5379;51.034;7.006;2023-03-01T12:47:58;7.47;;;5.33;;
10661;SDS011;5379;51.034;7.006;2023-03-01T12:50:39;4.77;;;4.37;;
10661;SDS011;5379;51.034;7.006;2023-03-01T12:53:19;6.60;;;4.97;;
10661;SDS011;5379;51.034;7.006;2023-03-01T12:55:49;6.27;;;5.03;;
10661;SDS011;5379;51.034;7.006;2023-03-01T12:58:22;5.23;;;4.70;;
10661;SDS011;5379;51.034;7.006;2023-03-01T13:01:00;5.23;;;4.70;;
10661;SDS011;5379;51.034;7.006;2023-03-01T13:03:42;7.33;;;4.80;;
10661;SDS011;5379;51.034;7.006;2023-03-01T13:06:24;4.73;;;4.33;;
10661;SDS011;5379;51.034;7.006;2023-03-01T13:08:57;5.83;;;4.70;;
10661;SDS011;5379;51.034;7.006;2023-03-01T13:11:29;5.70;;;5.00;;
10661;SDS011;5379;51.034;7.006;2023-03-01T13:16:58;6.37;;;4.73;;
10661;SDS011;5379;51.034;7.006;2023-03-01T13:19:25;7.93;;;4.60;;
10661;SDS011;5379;51.034;7.006;2023-03-01T13:21:55;7.83;;;4.73;;
10661;SDS011;5379;51.034;7.006;2023-03-01T13:24:24;5.50;;;4.73;;
10661;SDS011;5379;51.034;7.006;2023-03-01T13:27:10;4.17;;;3.77;;
10661;SDS011;5379;51.034;7.006;2023-03-01T13:29:50;5.00;;;4.50;;
10661;SDS011;5379;51.034;7.006;2023-03-01T13:32:32;4.70;;;4.23;;
10661;SDS011;5379;51.034;7.006;2023-03-01T13:35:39;11.40;;;5.07;;
10661;SDS011;5379;51.034;7.006;2023-03-01T13:41:04;5.33;;;4.43;;
10661;SDS011;5379;51.034;7.006;2023-03-01T13:43:33;4.10;;;3.77;;
10661;SDS011;5379;51.034;7.006;2023-03-01T13:46:07;4.97;;;3.77;;
10661;SDS011;5379;51.034;7.006;2023-03-01T13:48:47;4.17;;;3.87;;
10661;SDS011;5379;51.034;7.006;2023-03-01T13:51:30;6.80;;;4.73;;
10661;SDS011;5379;51.034;7.006;2023-03-01T13:53:59;6.17;;;3.80;;
10661;SDS011;5379;51.034;7.006;2023-03-01T13:56:27;5.37;;;3.80;;
10661;SDS011;5379;51.034;7.006;2023-03-01T13:59:01;6.50;;;4.80;;
10661;SDS011;5379;51.034;7.006;2023-03-01T14:01:30;5.63;;;4.30;;
10661;SDS011;5379;51.034;7.006;2023-03-01T14:04:00;6.47;;;4.60;;
10661;SDS011;5379;51.034;7.006;2023-03-01T14:06:29;4.30;;;3.90;;
10661;SDS011;5379;51.034;7.006;2023-03-01T14:09:04;6.53;;;4.60;;
10661;SDS011;5379;51.034;7.006;2023-03-01T14:11:57;12.80;;;6.33;;
10661;SDS011;5379;51.034;7.006;2023-03-01T14:14:48;5.10;;;4.60;;
10661;SDS011;5379;51.034;7.006;2023-03-01T14:20:14;10.67;;;5.60;;
10661;SDS011;5379;51.034;7.006;2023-03-01T14:22:43;6.93;;;5.53;;
10661;SDS011;5379;51.034;7.006;2023-03-01T14:25:22;12.57;;;4.93;;
10661;SDS011;5379;51.034;7.006;2023-03-01T14:27:54;6.23;;;4.93;;
10661;SDS011;5379;51.034;7.006;2023-03-01T14:30:24;7.50;;;5.57;;
10661;SDS011;5379;51.034;7.006;2023-03-01T14:32:53;6.47;;;5.50;;
10661;SDS011;5379;51.034;7.006;2023-03-01T14:35:23;5.67;;;4.90;;
10661;SDS011;5379;51.034;7.006;2023-03-01T14:37:51;12.53;;;5.57;;
10661;SDS011;5379;51.034;7.006;2023-03-01T14:43:44;6.97;;;4.83;;
10661;SDS011;5379;51.034;7.006;2023-03-01T14:46:54;6.07;;;4.47;;
10661;SDS011;5379;51.034;7.006;2023-03-01T14:49:53;6.07;;;4.97;;
10661;SDS011;5379;51.034;7.006;2023-03-01T14:52:31;8.90;;;4.80;;
10661;SDS011;5379;51.034;7.006;2023-03-01T14:55:02;9.13;;;5.63;;
10661;SDS011;5379;51.034;7.006;2023-03-01T14:57:31;8.23;;;4.30;;
10661;SDS011;5379;51.034;7.006;2023-03-01T15:00:00;9.60;;;5.60;;
10661;SDS011;5379;51.034;7.006;2023-03-01T15:02:32;9.70;;;5.80;;
10661;SDS011;5379;51.034;7.006;2023-03-01T15:05:01;6.93;;;5.30;;
10661;SDS011;5379;51.034;7.006;2023-03-01T15:07:33;5.30;;;4.83;;
10661;SDS011;5379;51.034;7.006;2023-03-01T15:10:06;8.20;;;5.17;;
10661;SDS011;5379;51.034;7.006;2023-03-01T15:15:39;5.93;;;4.20;;
10661;SDS011;5379;51.034;7.006;2023-03-01T15:18:16;6.27;;;4.97;;
10661;SDS011;5379;51.034;7.006;2023-03-01T15:21:06;5.40;;;4.90;;
10661;SDS011;5379;51.034;7.006;2023-03-01T15:23:47;8.47;;;4.53;;
10661;SDS011;5379;51.034;7.006;2023-03-01T15:26:25;4.57;;;4.10;;
10661;SDS011;5379;51.034;7.006;2023-03-01T15:28:57;6.73;;;5.33;;
10661;SDS011;5379;51.034;7.006;2023-03-01T15:31:27;5.87;;;4.70;;
10661;SDS011;5379;51.034;7.006;2023-03-01T15:34:20;4.20;;;3.50;;
10661;SDS011;5379;51.034;7.006;2023-03-01T15:36:49;5.17;;;4.27;;
10661;SDS011;5379;51.034;7.006;2023-03-01T15:39:38;5.57;;;5.07;;
10661;SDS011;5379;51.034;7.006;2023-03-01T15:42:09;8.33;;;3.83;;
10661;SDS011;5379;51.034;7.006;2023-03-01T15:44:37;14.67;;;4.30;;
10661;SDS011;5379;51.034;7.006;2023-03-01T15:47:08;5.77;;;4.37;;
10661;SDS011;5379;51.034;7.006;2023-03-01T15:49:53;4.97;;;4.10;;
10661;SDS011;5379;51.034;7.006;2023-03-01T15:52:22;8.03;;;4.63;;
10661;SDS011;5379;51.034;7.006;2023-03-01T15:54:55;6.20;;;4.50;;
10661;SDS011;5379;51.034;7.006;2023-03-01T15:57:23;5.30;;;4.17;;
10661;SDS011;5379;51.034;7.006;2023-03-01T15:59:50;8.10;;;5.20;;
10661;SDS011;5379;51.034;7.006;2023-03-01T16:02:17;5.80;;;4.63;;
10661;SDS011;5379;51.034;7.006;2023-03-01T16:04:46;5.97;;;4.13;;
10661;SDS011;5379;51.034;7.006;2023-03-01T16:07:13;5.47;;;4.63;;
10661;SDS011;5379;51.034;7.006;2023-03-01T16:09:40;6.60;;;4.70;;
10661;SDS011;5379;51.034;7.006;2023-03-01T16:12:12;5.23;;;4.67;;
10661;SDS011;5379;51.034;7.006;2023-03-01T16:14:40;6.50;;;4.43;;
10661;SDS011;5379;51.034;7.006;2023-03-01T16:17:07;4.90;;;3.90;;
10661;SDS011;5379;51.034;7.006;2023-03-01T16:19:40;3.93;;;3.50;;
10661;SDS011;5379;51.034;7.006;2023-03-01T16:22:16;6.63;;;4.70;;
10661;SDS011;5379;51.034;7.006;2023-03-01T16:24:50;7.47;;;4.63;;
10661;SDS011;5379;51.034;7.006;2023-03-01T16:27:18;5.57;;;3.60;;
10661;SDS011;5379;51.034;7.006;2023-03-01T16:29:45;4.57;;;3.87;;
10661;SDS011;5379;51.034;7.006;2023-03-01T16:32:13;7.03;;;4.70;;
10661;SDS011;5379;51.034;7.006;2023-03-01T16:34:44;8.57;;;4.70;;
10661;SDS011;5379;51.034;7.006;2023-03-01T16:37:15;7.00;;;4.60;;
10661;SDS011;5379;51.034;7.006;2023-03-01T16:39:44;4.17;;;3.87;;
10661;SDS011;5379;51.034;7.006;2023-03-01T16:42:11;7.10;;;4.30;;
10661;SDS011;5379;51.034;7.006;2023-03-01T16:44:39;5.63;;;4.40;;
10661;SDS011;5379;51.034;7.006;2023-03-01T16:47:06;9.63;;;4.57;;
10661;SDS011;5379;51.034;7.006;2023-03-01T16:49:41;3.67;;;3.33;;
10661;SDS011;5379;51.034;7.006;2023-03-01T16:52:11;4.93;;;4.10;;
10661;SDS011;5379;51.034;7.006;2023-03-01T16:54:41;6.30;;;4.17;;
10661;SDS011;5379;51.034;7.006;2023-03-01T16:57:08;6.70;;;4.20;;
10661;SDS011;5379;51.034;7.006;2023-03-01T16:59:43;5.23;;;3.90;;
10661;SDS011;5379;51.034;7.006;2023-03-01T17:02:16;4.70;;;4.20;;
10661;SDS011;5379;51.034;7.006;2023-03-01T17:04:44;6.33;;;4.17;;
10661;SDS011;5379;51.034;7.006;2023-03-01T17:07:17;4.50;;;4.10;;
10661;SDS011;5379;51.034;7.006;2023-03-01T17:09:44;6.20;;;4.80;;
10661;SDS011;5379;51.034;7.006;2023-03-01T17:12:12;6.20;;;4.53;;
10661;SDS011;5379;51.034;7.006;2023-03-01T17:14:40;7.87;;;4.47;;
10661;SDS011;5379;51.034;7.006;2023-03-01T17:17:08;5.17;;;4.67;;
10661;SDS011;5379;51.034;7.006;2023-03-01T17:19:37;5.43;;;4.57;;
10661;SDS011;5379;51.034;7.006;2023-03-01T17:22:06;6.77;;;4.43;;
10661;SDS011;5379;51.034;7.006;2023-03-01T17:24:58;7.33;;;4.67;;
10661;SDS011;5379;51.034;7.006;2023-03-01T17:31:06;5.00;;;4.57;;
10661;SDS011;5379;51.034;7.006;2023-03-01T17:34:05;6.57;;;4.43;;
10661;SDS011;5379;51.034;7.006;2023-03-01T17:36:36;5.47;;;4.70;;
10661;SDS011;5379;51.034;7.006;2023-03-01T17:39:39;6.47;;;4.53;;
10661;SDS011;5379;51.034;7.006;2023-03-01T17:42:10;4.93;;;4.20;;
10661;SDS011;5379;51.034;7.006;2023-03-01T17:44:42;6.27;;;4.33;;
10661;SDS011;5379;51.034;7.006;2023-03-01T17:47:28;7.37;;;4.73;;
10661;SDS011;5379;51.034;7.006;2023-03-01T17:50:10;4.90;;;4.43;;
10661;SDS011;5379;51.034;7.006;2023-03-01T17:52:43;11.43;;;4.70;;
10661;SDS011;5379;51.034;7.006;2023-03-01T17:55:24;6.67;;;4.43;;
10661;SDS011;5379;51.034;7.006;2023-03-01T17:58:02;5.37;;;4.87;;
10661;SDS011;5379;51.034;7.006;2023-03-01T18:00:47;8.00;;;5.10;;
10661;SDS011;5379;51.034;7.006;2023-03-01T18:03:24;5.60;;;4.00;;
10661;SDS011;5379;51.034;7.006;2023-03-01T18:06:17;5.73;;;4.37;;
10661;SDS011;5379;51.034;7.006;2023-03-01T18:08:53;10.33;;;4.57;;
10661;SDS011;5379;51.034;7.006;2023-03-01T18:11:21;6.60;;;5.10;;
10661;SDS011;5379;51.034;7.006;2023-03-01T18:13:51;7.53;;;5.10;;
10661;SDS011;5379;51.034;7.006;2023-03-01T18:16:21;5.13;;;4.37;;
10661;SDS011;5379;51.034;7.006;2023-03-01T18:18:57;7.43;;;6.57;;
10661;SDS011;5379;51.034;7.006;2023-03-01T18:21:35;4.90;;;4.47;;
10661;SDS011;5379;51.034;7.006;2023-03-01T18:24:02;6.43;;;4.40;;
10661;SDS011;5379;51.034;7.006;2023-03-01T18:26:33;5.93;;;5.23;;
10661;SDS011;5379;51.034;7.006;2023-03-01T18:29:04;5.33;;;4.13;;
10661;SDS011;5379;51.034;7.006;2023-03-01T18:31:34;8.30;;;5.07;;
10661;SDS011;5379;51.034;7.006;2023-03-01T18:34:08;4.87;;;4.47;;
10661;SDS011;5379;51.034;7.006;2023-03-01T18:36:40;11.97;;;5.73;;
10661;SDS011;5379;51.034;7.006;2023-03-01T18:39:21;6.00;;;4.67;;
10661;SDS011;5379;51.034;7.006;2023-03-01T18:42:34;9.03;;;5.03;;
10661;SDS011;5379;51.034;7.006;2023-03-01T18:45:54;7.50;;;4.47;;
10661;SDS011;5379;51.034;7.006;2023-03-01T18:48:44;4.73;;;4.33;;
10661;SDS011;5379;51.034;7.006;2023-03-01T18:51:19;5.47;;;4.70;;
10661;SDS011;5379;51.034;7.006;2023-03-01T18:57:17;4.70;;;4.30;;
10661;SDS011;5379;51.034;7.006;2023-03-01T18:59:56;7.93;;;5.30;;
10661;SDS011;5379;51.034;7.006;2023-03-01T19:02:33;5.50;;;4.93;;
10661;SDS011;5379;51.034;7.006;2023-03-01T19:05:00;11.30;;;7.07;;
10661;SDS011;5379;51.034;7.006;2023-03-01T19:07:27;6.70;;;5.60;;
10661;SDS011;5379;51.034;7.006;2023-03-01T19:09:54;5.97;;;5.37;;
10661;SDS011;5379;51.034;7.006;2023-03-01T19:12:22;5.23;;;4.73;;
10661;SDS011;5379;51.034;7.006;2023-03-01T19:14:49;6.57;;;5.13;;
10661;SDS011;5379;51.034;7.006;2023-03-01T19:17:16;6.47;;;5.37;;
10661;SDS011;5379;51.034;7.006;2023-03-01T19:19:44;6.00;;;4.87;;
10661;SDS011;5379;51.034;7.006;2023-03-01T19:22:10;6.83;;;5.67;;
10661;SDS011;5379;51.034;7.006;2023-03-01T19:24:37;8.03;;;6.17;;
10661;SDS011;5379;51.034;7.006;2023-03-01T19:27:04;6.23;;;5.33;;
10661;SDS011;5379;51.034;7.006;2023-03-01T19:29:33;7.40;;;5.30;;
10661;SDS011;5379;51.034;7.006;2023-03-01T19:32:00;8.10;;;5.23;;
10661;SDS011;5379;51.034;7.006;2023-03-01T19:34:27;11.10;;;6.00;;
10661;SDS011;5379;51.034;7.006;2023-03-01T19:36:54;9.60;;;6.60;;
10661;SDS011;5379;51.034;7.006;2023-03-01T19:39:21;7.07;;;5.43;;
10661;SDS011;5379;51.034;7.006;2023-03-01T19:41:48;9.63;;;6.13;;
10661;SDS011;5379;51.034;7.006;2023-03-01T19:44:14;13.73;;;6.60;;
10661;SDS011;5379;51.034;7.006;2023-03-01T19:46:43;7.17;;;6.47;;
10661;SDS011;5379;51.034;7.006;2023-03-01T19:49:10;9.57;;;6.67;;
10661;SDS011;5379;51.034;7.006;2023-03-01T19:51:37;8.40;;;5.67;;
10661;SDS011;5379;51.034;7.006;2023-03-01T19:54:04;11.87;;;5.57;;
10661;SDS011;5379;51.034;7.006;2023-03-01T19:56:31;7.10;;;5.40;;
10661;SDS011;5379;51.034;7.006;2023-03-01T19:58:59;5.70;;;5.20;;
10661;SDS011;5379;51.034;7.006;2023-03-01T20:01:28;6.43;;;5.20;;
10661;SDS011;5379;51.034;7.006;2023-03-01T20:03:58;6.83;;;5.03;;
10661;SDS011;5379;51.034;7.006;2023-03-01T20:06:25;6.17;;;5.40;;
10661;SDS011;5379;51.034;7.006;2023-03-01T20:08:54;9.60;;;5.93;;
10661;SDS011;5379;51.034;7.006;2023-03-01T20:11:21;7.80;;;5.57;;
10661;SDS011;5379;51.034;7.006;2023-03-01T20:13:48;5.87;;;5.27;;
10661;SDS011;5379;51.034;7.006;2023-03-01T20:16:16;6.80;;;5.47;;
10661;SDS011;5379;51.034;7.006;2023-03-01T20:18:44;13.10;;;6.57;;
10661;SDS011;5379;51.034;7.006;2023-03-01T20:21:13;8.63;;;5.50;;
10661;SDS011;5379;51.034;7.006;2023-03-01T20:23:42;10.17;;;5.53;;
10661;SDS011;5379;51.034;7.006;2023-03-01T20:26:10;8.93;;;7.00;;
10661;SDS011;5379;51.034;7.006;2023-03-01T20:28:40;8.63;;;5.67;;
10661;SDS011;5379;51.034;7.006;2023-03-01T20:31:08;7.90;;;5.13;;
10661;SDS011;5379;51.034;7.006;2023-03-01T20:33:36;6.00;;;5.17;;